Time;durP1;ratioP1;P1;durP2;ratioP2;P2;SDS_P1;SDS_P2;PMS_P1;PMS_P2;Temp;Humidity;BMP_temperature;BMP_pressure;BME280_temperature;BME280_humidity;BME280_pressure;Samples;Min_cycle;Max_cycle;Signal;HPM_P1;HPM_P2
2022/08/19 00:18:38;;;;;;;6.40;5.80;;;25.30;99.90;;;;;;6238775;28;90931;-96
2022/08/19 00:21:41;;;;;;;6.50;5.90;;;25.30;99.90;;;;;;6234795;28;89459;-95
2022/08/19 00:24:45;;;;;;;6.75;6.15;;;25.20;99.90;;;;;;6235031;28;87964;-96
2022/08/19 00:27:47;;;;;;;6.20;5.70;;;25.20;99.90;;;;;;6234046;28;88825;-95
2022/08/19 00:30:51;;;;;;;6.22;5.72;;;25.20;99.90;;;;;;6234583;28;88313;-96
2022/08/19 00:33:53;;;;;;;6.82;6.22;;;25.30;99.90;;;;;;6233708;28;88430;-96
2022/08/19 00:36:56;;;;;;;6.88;6.28;;;25.30;99.90;;;;;;6236894;28;89149;-96
2022/08/19 00:40:00;;;;;;;6.68;6.07;;;25.20;99.90;;;;;;6235448;28;90039;-96
2022/08/19 00:43:09;;;;;;;6.35;5.75;;;25.20;99.90;;;;;;6237752;28;89172;-96
2022/08/19 00:49:36;;;;;;;6.55;6.05;;;25.20;99.90;;;;;;6239310;28;88896;-96
2022/08/19 00:56:11;;;;;;;7.82;6.47;;;25.20;99.90;;;;;;6253587;27;80296;-67
2022/08/19 00:59:14;;;;;;;6.72;6.13;;;25.20;99.90;;;;;;6223810;27;82268;-67
2022/08/19 01:02:17;;;;;;;6.70;6.18;;;25.20;99.90;;;;;;6241430;28;81957;-67
2022/08/19 01:05:22;;;;;;;6.82;6.22;;;25.20;99.90;;;;;;6210245;28;82349;-67
2022/08/19 01:08:24;;;;;;;6.80;6.20;;;25.20;99.90;;;;;;6221735;27;82254;-67
2022/08/19 01:11:28;;;;;;;6.72;6.20;;;25.20;99.90;;;;;;6231356;28;82292;-67
2022/08/19 01:14:31;;;;;;;6.88;6.28;;;25.20;99.90;;;;;;6239814;28;82602;-67
2022/08/19 01:17:33;;;;;;;7.13;6.43;;;25.20;99.90;;;;;;6219173;28;82208;-67
2022/08/19 01:20:36;;;;;;;7.10;6.50;;;25.20;99.90;;;;;;6217541;28;82826;-67
2022/08/19 01:23:45;;;;;;;7.00;6.50;;;25.20;99.90;;;;;;6233710;28;82478;-67
2022/08/19 01:26:48;;;;;;;7.15;6.55;;;25.20;99.90;;;;;;6221213;28;81348;-67
2022/08/19 01:29:50;;;;;;;7.00;6.03;;;25.20;99.90;;;;;;6217990;28;83570;-67
2022/08/19 01:32:53;;;;;;;6.93;6.25;;;25.20;99.90;;;;;;6218010;28;81188;-67
2022/08/19 01:36:05;;;;;;;6.75;6.25;;;25.20;99.90;;;;;;6215563;27;80279;-67
2022/08/19 01:39:12;;;;;;;7.20;6.60;;;25.20;99.90;;;;;;6235479;27;82423;-67
2022/08/19 01:42:14;;;;;;;6.70;6.10;;;25.20;99.90;;;;;;6236145;27;81195;-67
2022/08/19 01:45:16;;;;;;;7.00;6.40;;;25.20;99.90;;;;;;6212817;28;82303;-67
2022/08/19 01:48:18;;;;;;;6.95;6.40;;;25.20;99.90;;;;;;6239085;28;81213;-67
2022/08/19 01:51:20;;;;;;;6.97;6.38;;;25.20;99.90;;;;;;6218032;27;82638;-67
2022/08/19 01:54:25;;;;;;;6.95;6.28;;;25.20;99.90;;;;;;6232256;28;82639;-67
2022/08/19 01:57:27;;;;;;;6.57;6.05;;;25.20;99.90;;;;;;6228810;28;82681;-67
2022/08/19 02:00:32;;;;;;;6.85;6.28;;;25.20;99.90;;;;;;6236429;28;82345;-67
2022/08/19 02:03:34;;;;;;;7.00;6.40;;;25.20;99.90;;;;;;6243465;28;82692;-67
2022/08/19 02:06:37;;;;;;;6.72;6.13;;;25.20;99.90;;;;;;6221742;28;81202;-67
2022/08/19 02:09:40;;;;;;;7.10;6.40;;;25.20;99.90;;;;;;6202683;28;82405;-67
2022/08/19 02:12:42;;;;;;;6.95;6.35;;;25.20;99.90;;;;;;6203778;28;82383;-67
2022/08/19 02:15:44;;;;;;;7.07;6.47;;;25.20;99.90;;;;;;6210543;28;82756;-67
2022/08/19 02:18:49;;;;;;;7.22;6.70;;;25.20;99.90;;;;;;6208258;28;82390;-67
2022/08/19 02:21:51;;;;;;;7.13;6.53;;;25.20;99.90;;;;;;6206871;28;82236;-67
2022/08/19 02:24:54;;;;;;;7.43;6.72;;;25.20;99.90;;;;;;6212928;28;82474;-67
2022/08/19 02:27:57;;;;;;;7.15;6.55;;;25.20;99.90;;;;;;6198085;28;83497;-67
2022/08/19 02:31:00;;;;;;;7.20;6.57;;;25.20;99.90;;;;;;6198432;28;84478;-67
2022/08/19 02:34:02;;;;;;;7.13;6.53;;;25.20;99.90;;;;;;6201220;28;82674;-67
2022/08/19 02:37:04;;;;;;;7.20;6.50;;;25.20;99.90;;;;;;6208064;28;82315;-67
2022/08/19 02:40:08;;;;;;;7.10;6.60;;;25.20;99.90;;;;;;6203612;28;82345;-67
2022/08/19 02:43:10;;;;;;;6.55;6.05;;;25.10;99.90;;;;;;6209923;28;82258;-67
2022/08/19 02:46:14;;;;;;;6.93;6.35;;;25.20;99.90;;;;;;6195062;28;82384;-67
2022/08/19 02:49:17;;;;;;;7.00;6.40;;;25.20;99.90;;;;;;6194539;28;84174;-67
2022/08/19 02:52:19;;;;;;;6.53;6.03;;;25.20;99.90;;;;;;6200403;28;82324;-67
2022/08/19 02:55:22;;;;;;;6.38;5.88;;;25.20;99.90;;;;;;6198845;28;82379;-67
2022/08/19 02:58:26;;;;;;;6.28;5.75;;;25.10;99.90;;;;;;6195715;28;82195;-67
2022/08/19 03:01:30;;;;;;;7.10;6.43;;;25.10;99.90;;;;;;6197660;28;81558;-67
2022/08/19 03:04:32;;;;;;;5.95;5.53;;;25.10;99.90;;;;;;6205387;28;81761;-67
2022/08/19 03:07:34;;;;;;;7.00;6.40;;;25.20;99.90;;;;;;6205983;28;82173;-67
2022/08/19 03:10:44;;;;;;;6.82;6.32;;;25.10;99.90;;;;;;6220278;28;82391;-67
2022/08/19 03:13:48;;;;;;;7.03;6.38;;;25.20;99.90;;;;;;6199288;28;82171;-67
2022/08/19 03:16:52;;;;;;;6.88;6.38;;;25.20;99.90;;;;;;6225922;28;82162;-67
2022/08/19 03:19:55;;;;;;;7.10;6.40;;;25.10;99.90;;;;;;6202546;28;81738;-67
2022/08/19 03:22:57;;;;;;;6.53;6.03;;;25.10;99.90;;;;;;6215856;28;81402;-67
2022/08/19 03:26:05;;;;;;;7.10;6.40;;;25.10;99.90;;;;;;6209717;28;82779;-67
2022/08/19 03:29:10;;;;;;;6.60;6.10;;;25.10;99.90;;;;;;6195394;28;82366;-67
2022/08/19 03:32:12;;;;;;;6.25;5.75;;;25.10;99.90;;;;;;6215146;28;82248;-67
2022/08/19 03:35:14;;;;;;;6.57;5.97;;;25.10;99.90;;;;;;6208561;28;82010;-67
2022/08/19 03:38:16;;;;;;;6.70;6.10;;;25.10;99.90;;;;;;6198652;28;82373;-67
2022/08/19 03:41:22;;;;;;;6.00;5.50;;;25.10;99.90;;;;;;6211294;28;82291;-67
2022/08/19 03:44:24;;;;;;;6.38;5.88;;;25.10;99.90;;;;;;6200387;28;82559;-66
2022/08/19 03:47:26;;;;;;;6.72;6.10;;;25.10;99.90;;;;;;6195806;28;82293;-66
2022/08/19 03:50:28;;;;;;;6.30;5.80;;;25.10;99.90;;;;;;6187057;28;82331;-67
2022/08/19 03:53:32;;;;;;;7.18;6.53;;;25.10;99.90;;;;;;6203966;28;82337;-67
2022/08/19 03:56:37;;;;;;;7.78;7.05;;;25.10;99.90;;;;;;6201026;28;82345;-67
2022/08/19 03:59:39;;;;;;;7.40;6.32;;;25.10;99.90;;;;;;6201889;28;82850;-67
2022/08/19 04:02:43;;;;;;;6.93;6.32;;;25.10;99.90;;;;;;6203199;28;82335;-67
2022/08/19 04:05:45;;;;;;;7.32;6.72;;;25.10;99.90;;;;;;6193149;28;82537;-67
2022/08/19 04:08:48;;;;;;;7.85;7.22;;;25.10;99.90;;;;;;6201995;28;81507;-67
2022/08/19 04:11:54;;;;;;;7.82;7.05;;;25.00;99.90;;;;;;6195698;28;82594;-67
2022/08/19 04:14:56;;;;;;;7.13;6.53;;;25.10;99.90;;;;;;6196178;28;82418;-67
2022/08/19 04:17:58;;;;;;;7.75;7.15;;;25.00;99.90;;;;;;6191270;28;82416;-67
2022/08/19 04:21:00;;;;;;;8.80;8.10;;;25.10;99.90;;;;;;6195020;28;82696;-66
2022/08/19 04:24:03;;;;;;;8.93;8.13;;;25.10;99.90;;;;;;6210984;28;82518;-67
2022/08/19 04:27:06;;;;;;;8.63;7.93;;;25.00;99.90;;;;;;6220017;28;82701;-68
2022/08/19 04:30:09;;;;;;;8.98;8.18;;;25.00;99.90;;;;;;6226885;28;82297;-68
2022/08/19 04:33:13;;;;;;;8.10;7.40;;;25.10;99.90;;;;;;6200061;28;81217;-68
2022/08/19 04:36:20;;;;;;;8.25;7.60;;;25.00;99.90;;;;;;6216012;28;82329;-68
2022/08/19 04:42:38;;;;;;;7.93;7.22;;;25.00;99.90;;;;;;6213662;28;82458;-68
2022/08/19 04:42:49;;;;;;;8.27;7.53;;;25.00;99.90;;;;;;6190903;28;80839;-68
2022/08/19 04:45:51;;;;;;;8.13;7.43;;;25.00;99.90;;;;;;6209585;28;82021;-66
2022/08/19 04:48:56;;;;;;;8.60;7.80;;;25.10;99.90;;;;;;6191416;28;82292;-69
2022/08/19 04:51:58;;;;;;;9.98;7.72;;;25.00;99.90;;;;;;6209348;28;82435;-69
2022/08/19 04:55:00;;;;;;;8.13;7.43;;;25.00;99.90;;;;;;6217540;28;81905;-68
2022/08/19 04:58:04;;;;;;;8.20;7.40;;;25.00;99.90;;;;;;6196930;28;82620;-69
2022/08/19 05:01:06;;;;;;;7.93;7.32;;;25.10;99.90;;;;;;6197748;28;81187;-69
2022/08/19 05:04:08;;;;;;;8.45;7.65;;;25.10;99.90;;;;;;6216624;28;81663;-69
2022/08/19 05:07:10;;;;;;;11.38;10.27;;;25.10;99.90;;;;;;6205493;28;83133;-69
2022/08/19 05:10:12;;;;;;;11.68;10.68;;;25.10;99.90;;;;;;6212645;28;83110;-70
2022/08/19 05:13:17;;;;;;;10.63;9.73;;;25.10;99.90;;;;;;6209009;28;84410;-69
2022/08/19 05:16:21;;;;;;;10.82;9.82;;;25.00;99.90;;;;;;6207459;28;82561;-69
2022/08/19 05:22:44;;;;;;;10.68;9.60;;;24.90;99.90;;;;;;6198606;28;81723;-69
2022/08/19 05:25:46;;;;;;;13.05;10.02;;;25.00;99.90;;;;;;6209409;28;82311;-69
2022/08/19 05:28:49;;;;;;;12.07;9.50;;;25.00;99.90;;;;;;6206111;28;83654;-68
2022/08/19 05:31:52;;;;;;;14.00;10.93;;;25.00;99.90;;;;;;6207996;28;82451;-69
2022/08/19 05:34:55;;;;;;;20.63;12.43;;;25.00;99.90;;;;;;6211227;28;83157;-69
2022/08/19 05:37:57;;;;;;;24.02;13.35;;;25.00;99.90;;;;;;6196498;28;83189;-69
2022/08/19 05:40:59;;;;;;;20.33;12.93;;;25.00;99.90;;;;;;6188648;28;82813;-69
2022/08/19 05:44:08;;;;;;;24.25;13.57;;;24.90;99.90;;;;;;6204511;28;82815;-69
2022/08/19 05:47:11;;;;;;;18.50;11.63;;;24.90;99.90;;;;;;6214861;28;84321;-69
2022/08/19 05:50:14;;;;;;;17.80;13.38;;;24.90;99.90;;;;;;6205317;28;82791;-68
2022/08/19 05:53:16;;;;;;;16.00;12.82;;;24.90;99.90;;;;;;6207734;28;84269;-68
2022/08/19 05:56:20;;;;;;;18.23;12.07;;;24.90;99.90;;;;;;6202815;28;82654;-68
2022/08/19 05:59:23;;;;;;;23.83;12.63;;;24.90;99.90;;;;;;6220218;28;82830;-68
2022/08/19 06:02:26;;;;;;;26.70;13.80;;;24.90;99.90;;;;;;6204551;28;83974;-68
2022/08/19 06:05:28;;;;;;;31.98;16.27;;;25.00;99.90;;;;;;6200493;28;83350;-68
2022/08/19 06:08:30;;;;;;;44.28;19.27;;;24.90;99.90;;;;;;6201857;28;84019;-68
2022/08/19 06:11:37;;;;;;;32.03;17.95;;;24.90;99.90;;;;;;6203803;28;83979;-68
2022/08/19 06:14:41;;;;;;;26.73;14.95;;;24.90;99.90;;;;;;6186662;28;85063;-68
2022/08/19 06:17:45;;;;;;;23.90;14.23;;;25.00;99.90;;;;;;6204019;28;82910;-68
2022/08/19 06:20:48;;;;;;;15.75;12.38;;;25.00;99.90;;;;;;6210590;28;83972;-68
2022/08/19 06:23:51;;;;;;;15.70;11.68;;;25.00;99.90;;;;;;6211075;28;83992;-68
2022/08/19 06:26:56;;;;;;;13.90;11.38;;;25.00;99.90;;;;;;6204732;28;84065;-68
2022/08/19 06:29:59;;;;;;;14.65;12.35;;;25.00;99.90;;;;;;6199942;28;83969;-68
2022/08/19 06:33:02;;;;;;;12.32;11.02;;;25.00;99.90;;;;;;6191677;28;85071;-68
2022/08/19 06:36:05;;;;;;;13.13;11.73;;;25.00;99.90;;;;;;6209523;28;83099;-68
2022/08/19 06:39:10;;;;;;;12.93;11.57;;;25.00;99.90;;;;;;6193032;28;83958;-68
2022/08/19 06:42:16;;;;;;;12.48;11.18;;;25.00;99.90;;;;;;6202825;28;84084;-68
2022/08/19 06:45:20;;;;;;;12.35;11.15;;;25.00;99.90;;;;;;6206118;28;84963;-68
2022/08/19 06:48:22;;;;;;;12.15;11.05;;;25.00;99.90;;;;;;6204600;28;84077;-68
2022/08/19 06:51:25;;;;;;;12.88;11.57;;;25.00;99.90;;;;;;6210960;28;84213;-68
2022/08/19 06:54:29;;;;;;;12.52;11.32;;;25.00;99.90;;;;;;6197619;28;84044;-68
2022/08/19 06:57:32;;;;;;;12.45;11.25;;;25.00;99.90;;;;;;6197992;28;84230;-68
2022/08/19 07:00:36;;;;;;;12.70;11.45;;;25.00;99.90;;;;;;6208292;28;84103;-68
2022/08/19 07:03:39;;;;;;;12.70;11.48;;;25.00;99.90;;;;;;6208448;28;84197;-68
2022/08/19 07:06:41;;;;;;;12.65;11.45;;;24.90;99.90;;;;;;6210326;28;83584;-68
2022/08/19 07:09:45;;;;;;;12.57;11.38;;;25.00;99.90;;;;;;6196765;28;83971;-67
2022/08/19 07:12:47;;;;;;;13.95;12.30;;;25.00;99.90;;;;;;6194575;28;85880;-67
2022/08/19 07:15:51;;;;;;;12.32;11.23;;;25.00;99.90;;;;;;6216420;28;85043;-67
2022/08/19 07:18:53;;;;;;;12.90;11.60;;;25.00;99.90;;;;;;6199303;28;84325;-67
2022/08/19 07:21:55;;;;;;;12.77;11.48;;;25.00;99.90;;;;;;6210202;28;82937;-67
2022/08/19 07:24:57;;;;;;;14.43;12.98;;;25.00;99.90;;;;;;6199873;28;84425;-68
2022/08/19 07:27:59;;;;;;;14.13;12.75;;;25.00;99.90;;;;;;6206012;28;84060;-67
2022/08/19 07:31:03;;;;;;;14.55;12.75;;;24.90;99.90;;;;;;6199940;28;84053;-67
2022/08/19 07:34:07;;;;;;;19.88;12.27;;;24.90;99.90;;;;;;6203026;28;83926;-68
2022/08/19 07:37:09;;;;;;;14.02;12.80;;;24.90;99.90;;;;;;6200067;28;82755;-66
2022/08/19 07:40:13;;;;;;;14.32;13.02;;;24.90;99.90;;;;;;6214799;28;83174;-67
2022/08/19 07:43:15;;;;;;;14.80;13.27;;;24.90;99.90;;;;;;6199246;28;84021;-67
2022/08/19 07:46:20;;;;;;;14.55;13.10;;;24.90;99.90;;;;;;6195589;28;84962;-68
2022/08/19 07:49:23;;;;;;;14.25;12.95;;;24.90;99.90;;;;;;6205455;28;84323;-68
2022/08/19 07:52:25;;;;;;;15.10;13.60;;;24.90;99.90;;;;;;6209084;28;82898;-68
2022/08/19 07:55:27;;;;;;;15.73;14.23;;;24.80;99.90;;;;;;6205077;28;84101;-68
2022/08/19 07:58:29;;;;;;;15.40;14.10;;;24.90;99.90;;;;;;6203739;28;83357;-68
2022/08/19 08:01:33;;;;;;;14.93;13.63;;;24.90;99.90;;;;;;6204368;28;83750;-68
2022/08/19 08:11:21;;;;;;;17.38;15.70;;;24.90;99.90;;;;;;6167499;28;82863;-68
2022/08/19 08:14:26;;;;;;;18.45;16.75;;;24.90;99.90;;;;;;6205543;28;84186;-68
2022/08/19 08:17:31;;;;;;;18.42;16.83;;;24.90;99.90;;;;;;6191837;28;84242;-68
2022/08/19 08:20:34;;;;;;;19.27;17.55;;;24.90;99.90;;;;;;6204421;28;83136;-68
2022/08/19 08:23:36;;;;;;;21.20;19.13;;;25.00;99.90;;;;;;6193234;28;84064;-68
2022/08/19 08:26:38;;;;;;;21.45;19.55;;;25.00;99.90;;;;;;6202262;28;84167;-68
2022/08/19 08:29:40;;;;;;;22.50;20.58;;;25.00;99.90;;;;;;6204542;28;84070;-67
2022/08/19 08:32:43;;;;;;;22.55;20.48;;;25.00;99.90;;;;;;6210544;28;84370;-68
2022/08/19 08:35:46;;;;;;;23.05;21.05;;;25.00;99.90;;;;;;6196221;28;84078;-68
2022/08/19 08:38:48;;;;;;;24.20;22.10;;;25.10;99.90;;;;;;6206276;28;83356;-68
2022/08/19 08:41:56;;;;;;;22.38;20.48;;;25.10;99.90;;;;;;6206293;28;83886;-69
2022/08/19 08:45:01;;;;;;;14.30;13.10;;;25.10;99.90;;;;;;6212243;28;84345;-68
2022/08/19 08:48:14;;;;;;;14.35;13.13;;;25.40;99.90;;;;;;6201903;28;85073;-68
2022/08/19 08:51:23;;;;;;;14.65;13.27;;;25.70;99.90;;;;;;6191018;28;84387;-68
2022/08/19 08:54:29;;;;;;;13.77;12.57;;;25.80;99.90;;;;;;6196880;28;84381;-67
2022/08/19 08:57:38;;;;;;;13.30;12.18;;;25.90;99.90;;;;;;6203045;28;84009;-68
2022/08/19 09:00:44;;;;;;;13.35;12.25;;;25.90;99.90;;;;;;6215046;28;83746;-67
2022/08/19 09:03:48;;;;;;;12.48;11.48;;;25.90;99.90;;;;;;6206296;28;84061;-67
2022/08/19 09:06:55;;;;;;;12.88;11.75;;;25.90;99.90;;;;;;6215253;28;83986;-68
2022/08/19 09:10:09;;;;;;;12.27;11.18;;;25.80;99.90;;;;;;6202147;28;84007;-68
2022/08/19 09:13:17;;;;;;;12.35;11.35;;;25.80;99.90;;;;;;6190244;28;84682;-68
2022/08/19 09:16:23;;;;;;;11.38;10.38;;;25.90;99.90;;;;;;6215075;28;82853;-67
2022/08/19 09:19:27;;;;;;;11.98;10.90;;;25.80;99.90;;;;;;6197987;28;85022;-67
2022/08/19 09:22:29;;;;;;;11.88;10.88;;;25.80;99.90;;;;;;6201653;28;84067;-68
2022/08/19 09:25:34;;;;;;;12.38;11.35;;;25.80;99.90;;;;;;6204952;28;84067;-68
2022/08/19 09:28:36;;;;;;;14.07;12.88;;;25.80;99.90;;;;;;6197756;28;84082;-66
2022/08/19 09:31:39;;;;;;;14.25;12.95;;;25.70;99.90;;;;;;6208669;28;84309;-68
2022/08/19 09:34:43;;;;;;;13.45;12.25;;;25.60;99.90;;;;;;6214319;28;83641;-67
2022/08/19 09:37:45;;;;;;;12.70;11.43;;;25.60;99.90;;;;;;6204327;28;84072;-67
2022/08/19 09:40:47;;;;;;;11.93;10.82;;;25.50;99.90;;;;;;6214927;28;82890;-66
2022/08/19 09:43:51;;;;;;;12.95;11.75;;;25.50;99.90;;;;;;6218032;28;84034;-67
2022/08/19 09:46:53;;;;;;;12.10;11.10;;;25.50;99.90;;;;;;6194178;28;84220;-67
2022/08/19 09:49:57;;;;;;;12.07;11.00;;;25.40;99.90;;;;;;6199731;28;85072;-68
2022/08/19 09:52:59;;;;;;;14.13;12.82;;;25.30;99.90;;;;;;6200365;28;84032;-67
2022/08/19 09:56:01;;;;;;;12.85;11.65;;;25.40;99.90;;;;;;6213242;28;84640;-67
2022/08/19 09:59:04;;;;;;;13.25;12.07;;;25.30;99.90;;;;;;6207590;28;84422;-67
2022/08/19 10:02:06;;;;;;;12.93;11.73;;;25.20;99.90;;;;;;6226703;28;82973;-67
2022/08/19 10:08:32;;;;;;;11.15;10.15;;;25.20;99.90;;;;;;6200055;28;82846;-67
2022/08/19 10:11:37;;;;;;;10.93;10.02;;;25.30;99.90;;;;;;6204085;28;83629;-67
2022/08/19 10:14:39;;;;;;;10.75;9.75;;;25.30;99.90;;;;;;6204360;28;84433;-67
2022/08/19 10:17:41;;;;;;;10.43;9.55;;;25.30;99.90;;;;;;6212357;28;84040;-67
2022/08/19 10:20:45;;;;;;;10.40;9.50;;;25.20;99.90;;;;;;6204610;28;84012;-67
2022/08/19 10:23:49;;;;;;;11.02;9.95;;;25.30;99.90;;;;;;6205713;28;84172;-67
2022/08/19 10:26:51;;;;;;;11.55;10.45;;;25.30;99.90;;;;;;6193122;28;83902;-67
2022/08/19 10:29:53;;;;;;;10.57;9.68;;;25.20;99.90;;;;;;6214842;28;83963;-67
2022/08/19 10:32:55;;;;;;;10.88;9.98;;;25.20;99.90;;;;;;6210200;28;84930;-67
2022/08/19 10:36:02;;;;;;;10.40;9.27;;;25.20;99.90;;;;;;6210887;28;84268;-67
2022/08/19 10:39:08;;;;;;;11.10;10.18;;;25.20;99.90;;;;;;6207803;28;84096;-67
2022/08/19 10:42:12;;;;;;;10.23;9.07;;;25.20;99.90;;;;;;6207174;28;83071;-67
2022/08/19 10:45:14;;;;;;;10.05;9.23;;;25.20;99.90;;;;;;6194651;28;84208;-67
2022/08/19 10:48:16;;;;;;;10.43;9.43;;;25.20;99.90;;;;;;6201864;28;84174;-67
2022/08/19 10:57:59;;;;;;;12.80;11.60;;;25.20;99.90;;;;;;6217802;28;85537;-67
2022/08/19 11:01:01;;;;;;;12.10;10.90;;;25.20;99.90;;;;;;6222122;28;84030;-67
2022/08/19 11:04:08;;;;;;;11.18;10.20;;;25.20;99.90;;;;;;6213164;28;84085;-67
2022/08/19 11:07:12;;;;;;;11.93;10.75;;;25.20;99.90;;;;;;6205815;28;84528;-66
2022/08/19 11:10:18;;;;;;;12.63;11.32;;;25.20;99.90;;;;;;6208738;28;83994;-67
2022/08/19 11:13:20;;;;;;;16.73;10.45;;;25.20;99.90;;;;;;6201068;28;83760;-67
2022/08/19 11:16:25;;;;;;;12.50;10.00;;;25.20;99.90;;;;;;6202174;28;83990;-67
2022/08/19 11:19:27;;;;;;;10.52;9.63;;;25.20;99.90;;;;;;6207064;28;84074;-67
2022/08/19 11:22:31;;;;;;;11.15;9.77;;;25.20;99.90;;;;;;6188586;28;84978;-67
2022/08/19 11:25:34;;;;;;;10.98;10.07;;;25.20;99.90;;;;;;6208203;28;84150;-67
2022/08/19 11:28:36;;;;;;;11.25;10.25;;;25.30;99.90;;;;;;6209656;28;84371;-67
2022/08/19 11:31:40;;;;;;;10.63;9.73;;;25.20;99.90;;;;;;6203460;28;84179;-67
2022/08/19 11:34:42;;;;;;;10.63;9.70;;;25.20;99.90;;;;;;6197851;28;83045;-67
2022/08/19 11:37:45;;;;;;;10.82;9.82;;;25.20;99.90;;;;;;6203028;28;84038;-67
2022/08/19 11:40:56;;;;;;;10.18;9.27;;;25.20;99.90;;;;;;6197767;28;82923;-67
2022/08/19 11:43:58;;;;;;;9.68;8.88;;;25.20;99.90;;;;;;6204013;28;83293;-67
2022/08/19 11:47:00;;;;;;;10.07;9.18;;;25.20;99.90;;;;;;6196861;28;84154;-67
2022/08/19 11:50:02;;;;;;;10.32;9.43;;;25.20;99.90;;;;;;6211135;28;81987;-67
2022/08/19 11:53:05;;;;;;;9.93;8.75;;;25.20;99.90;;;;;;6189908;28;85283;-67
2022/08/19 11:56:09;;;;;;;9.43;8.73;;;25.20;99.90;;;;;;6202984;28;82632;-67
2022/08/19 11:59:11;;;;;;;9.38;8.63;;;25.20;99.90;;;;;;6210334;28;84130;-67
2022/08/19 12:02:15;;;;;;;9.73;8.93;;;25.20;99.90;;;;;;6209378;28;84022;-66
2022/08/19 12:05:17;;;;;;;9.85;8.95;;;25.20;99.90;;;;;;6197246;28;84181;-67
2022/08/19 12:08:20;;;;;;;8.70;8.00;;;25.20;99.90;;;;;;6208768;28;82950;-67
2022/08/19 12:11:23;;;;;;;9.88;8.98;;;25.20;99.90;;;;;;6187892;28;83960;-67
2022/08/19 12:14:27;;;;;;;9.25;8.35;;;25.20;99.90;;;;;;6195594;28;83878;-67
2022/08/19 12:17:30;;;;;;;9.05;8.25;;;25.20;99.90;;;;;;6202421;28;82988;-67
2022/08/19 12:20:35;;;;;;;8.63;7.85;;;25.30;99.90;;;;;;6197162;28;84030;-67
2022/08/19 12:23:39;;;;;;;8.73;8.02;;;25.20;99.90;;;;;;6204072;28;84979;-66
2022/08/19 12:26:42;;;;;;;9.07;8.38;;;25.20;99.90;;;;;;6205569;28;84090;-67
2022/08/19 12:29:44;;;;;;;8.43;7.72;;;25.20;99.90;;;;;;6201114;28;84445;-67
2022/08/19 12:32:46;;;;;;;8.75;8.05;;;25.20;99.90;;;;;;6195363;28;84146;-67
2022/08/19 12:35:48;;;;;;;8.65;7.97;;;25.20;99.90;;;;;;6198793;28;83456;-66
2022/08/19 12:38:52;;;;;;;8.65;7.85;;;25.20;99.90;;;;;;6202318;28;83987;-67
2022/08/19 12:41:55;;;;;;;9.18;8.25;;;25.30;99.90;;;;;;6207264;28;83811;-67
2022/08/19 12:44:57;;;;;;;8.82;8.02;;;25.20;99.90;;;;;;6210030;28;83404;-67
2022/08/19 12:47:59;;;;;;;8.38;7.68;;;25.20;99.90;;;;;;6199514;28;84009;-67
2022/08/19 12:51:06;;;;;;;8.15;7.50;;;25.20;99.90;;;;;;6208221;28;84125;-67
2022/08/19 12:54:09;;;;;;;8.27;7.57;;;25.20;99.90;;;;;;6195417;28;85053;-67
2022/08/19 12:57:12;;;;;;;8.07;7.38;;;25.30;99.90;;;;;;6209165;28;82803;-67
2022/08/19 13:00:16;;;;;;;8.15;7.50;;;25.20;99.90;;;;;;6189592;28;83777;-67
2022/08/19 13:03:18;;;;;;;8.20;7.53;;;25.20;99.90;;;;;;6201408;28;84051;-67
2022/08/19 13:06:21;;;;;;;8.40;7.70;;;25.30;99.90;;;;;;6209469;28;84002;-67
2022/08/19 13:09:24;;;;;;;8.63;7.93;;;25.30;99.90;;;;;;6208955;28;83176;-67
2022/08/19 13:12:27;;;;;;;8.70;7.97;;;25.30;99.90;;;;;;6209274;28;84049;-67
2022/08/19 13:15:30;;;;;;;8.80;8.00;;;25.20;99.90;;;;;;6185782;28;83042;-67
2022/08/19 13:18:32;;;;;;;8.40;7.70;;;25.30;99.90;;;;;;6185359;28;83888;-67
2022/08/19 13:21:34;;;;;;;8.10;7.40;;;25.20;99.90;;;;;;6185730;28;84055;-67
2022/08/19 13:24:38;;;;;;;7.40;6.80;;;25.20;99.90;;;;;;6208500;28;85008;-67
2022/08/19 13:27:41;;;;;;;8.48;7.65;;;25.30;99.90;;;;;;6210114;28;83782;-67
2022/08/19 13:34:03;;;;;;;8.02;7.32;;;25.30;99.90;;;;;;6198508;28;83432;-67
2022/08/19 13:37:05;;;;;;;7.70;7.10;;;25.30;99.90;;;;;;6191422;28;83984;-67
2022/08/19 13:40:12;;;;;;;8.70;7.95;;;25.30;99.90;;;;;;6208421;28;83976;-67
2022/08/19 13:43:15;;;;;;;8.68;7.97;;;25.20;99.90;;;;;;6199822;28;84039;-69
2022/08/19 13:46:17;;;;;;;8.55;7.65;;;25.30;99.90;;;;;;6209748;28;83171;-67
2022/08/19 13:49:20;;;;;;;7.93;7.30;;;25.30;99.90;;;;;;6185129;28;81993;-67
2022/08/19 13:52:22;;;;;;;7.78;7.18;;;25.30;99.90;;;;;;6205441;28;84145;-68
2022/08/19 13:55:26;;;;;;;7.15;6.55;;;25.30;99.90;;;;;;6200835;28;83896;-67
2022/08/19 13:58:29;;;;;;;7.85;7.20;;;25.30;99.90;;;;;;6202494;28;84056;-67
2022/08/19 14:01:31;;;;;;;7.10;6.60;;;25.20;99.90;;;;;;6207152;28;83978;-67
2022/08/19 14:04:33;;;;;;;7.60;7.00;;;25.30;99.90;;;;;;6204579;28;83296;-67
2022/08/19 14:07:35;;;;;;;8.02;6.90;;;25.30;99.90;;;;;;6212059;28;83891;-67
2022/08/19 14:10:39;;;;;;;7.68;7.07;;;25.30;99.90;;;;;;6192565;28;83932;-67
2022/08/19 14:13:41;;;;;;;7.03;6.43;;;25.30;99.90;;;;;;6207300;28;84033;-67
2022/08/19 14:16:43;;;;;;;7.57;6.88;;;25.30;99.90;;;;;;6206407;28;85449;-66
2022/08/19 14:19:45;;;;;;;7.63;7.00;;;25.30;99.90;;;;;;6206031;28;83981;-67
2022/08/19 14:22:49;;;;;;;7.32;6.80;;;25.30;99.90;;;;;;6204404;28;84051;-67
2022/08/19 14:25:52;;;;;;;6.75;6.18;;;25.30;99.90;;;;;;6228882;28;85004;-67
2022/08/19 14:28:57;;;;;;;7.10;6.57;;;25.30;99.90;;;;;;6210565;28;83744;-67
2022/08/19 14:31:59;;;;;;;6.53;6.03;;;25.30;99.90;;;;;;6203393;28;83959;-67
2022/08/19 14:35:02;;;;;;;6.57;6.07;;;25.30;99.90;;;;;;6192499;28;82976;-67
2022/08/19 14:38:05;;;;;;;6.63;6.13;;;25.30;99.90;;;;;;6222874;28;84059;-67
2022/08/19 14:41:11;;;;;;;6.82;6.25;;;25.30;99.90;;;;;;6204778;28;84058;-67
2022/08/19 14:44:13;;;;;;;6.60;6.10;;;25.30;99.90;;;;;;6211887;28;84068;-67
2022/08/19 14:47:16;;;;;;;7.15;5.68;;;25.30;99.90;;;;;;6210245;28;83337;-67
2022/08/19 14:50:18;;;;;;;5.65;4.43;;;25.30;99.90;;;;;;6203197;28;84564;-68
2022/08/19 14:53:20;;;;;;;5.47;4.97;;;25.30;99.90;;;;;;6203359;28;84062;-67
2022/08/19 14:56:29;;;;;;;6.00;4.70;;;25.30;99.90;;;;;;6207139;28;85317;-67
2022/08/19 14:59:31;;;;;;;6.35;4.20;;;25.20;99.90;;;;;;6213183;28;83880;-67
2022/08/19 15:02:33;;;;;;;4.82;3.72;;;25.20;99.90;;;;;;6211782;28;82798;-67
2022/08/19 15:05:35;;;;;;;6.65;3.80;;;25.20;99.90;;;;;;6187952;28;84006;-67
2022/08/19 15:08:40;;;;;;;5.78;3.70;;;25.20;99.90;;;;;;6206179;28;82918;-67
2022/08/19 15:11:44;;;;;;;7.07;3.40;;;25.20;99.90;;;;;;6205726;28;83763;-67
2022/08/19 15:14:49;;;;;;;6.03;3.55;;;25.20;99.90;;;;;;6199454;28;82891;-67
2022/08/19 15:17:52;;;;;;;5.38;3.10;;;25.20;99.90;;;;;;6204346;28;81972;-67
2022/08/19 15:20:54;;;;;;;5.68;3.22;;;25.20;99.90;;;;;;6208847;28;84272;-67
2022/08/19 15:23:58;;;;;;;5.63;3.40;;;25.20;99.90;;;;;;6206685;28;84141;-67
2022/08/19 15:27:01;;;;;;;4.60;3.00;;;25.20;99.90;;;;;;6199129;28;83854;-67
2022/08/19 15:30:04;;;;;;;4.55;3.05;;;25.20;99.90;;;;;;6204045;28;82627;-67
2022/08/19 15:33:07;;;;;;;5.40;3.00;;;25.20;99.90;;;;;;6203040;28;84031;-67
2022/08/19 15:36:11;;;;;;;3.80;2.92;;;25.20;99.90;;;;;;6199310;28;84006;-67
2022/08/19 15:39:14;;;;;;;4.68;3.15;;;25.20;99.90;;;;;;6204540;28;84086;-67
2022/08/19 15:42:18;;;;;;;3.20;2.70;;;25.20;99.90;;;;;;6200086;28;84351;-67
2022/08/19 15:45:23;;;;;;;5.85;2.75;;;25.20;99.90;;;;;;6205247;28;84311;-67
2022/08/19 15:48:25;;;;;;;4.13;2.75;;;25.20;99.90;;;;;;6214700;28;82220;-67
2022/08/19 15:51:29;;;;;;;3.78;2.70;;;25.20;99.90;;;;;;6201534;28;84324;-67
2022/08/19 15:54:32;;;;;;;4.38;2.80;;;25.20;99.90;;;;;;6200624;28;84062;-67
2022/08/19 16:07:34;;;;;;;3.42;2.45;;;25.20;99.90;;;;;;6197126;28;82304;-67
2022/08/19 16:10:37;;;;;;;4.13;2.33;;;25.20;99.90;;;;;;6201254;28;84414;-67
2022/08/19 16:13:41;;;;;;;3.83;2.58;;;25.20;99.90;;;;;;6197220;28;84253;-68
2022/08/19 16:16:45;;;;;;;7.00;2.92;;;25.20;99.90;;;;;;6191359;28;84023;-67
2022/08/19 16:19:47;;;;;;;4.47;2.75;;;25.20;99.90;;;;;;6201920;28;82212;-67
2022/08/19 16:22:49;;;;;;;3.75;2.30;;;25.20;99.90;;;;;;6211332;28;82940;-67
2022/08/19 16:25:52;;;;;;;4.25;2.60;;;25.20;99.90;;;;;;6200587;28;82744;-68
2022/08/19 16:28:56;;;;;;;3.15;2.22;;;25.20;99.90;;;;;;6206811;28;84918;-67
2022/08/19 16:31:58;;;;;;;3.88;2.10;;;25.20;99.90;;;;;;6202089;28;84030;-67
2022/08/19 16:35:03;;;;;;;2.85;2.40;;;25.20;99.90;;;;;;6202220;28;84055;-67
2022/08/19 16:38:05;;;;;;;3.47;2.50;;;25.20;99.90;;;;;;6209605;28;84159;-67
2022/08/19 16:41:08;;;;;;;2.38;2.15;;;25.20;99.90;;;;;;6187433;28;84070;-67
2022/08/19 16:44:13;;;;;;;2.63;2.15;;;25.20;99.90;;;;;;6193718;28;84010;-67